Ride Results

Bumbaldry (21-03-2015)
Ride distance: 80.0 km

Outcomes - Bumbaldry (21-03-2015)
Division No. of Entries Retired / DNE Completed Withdrawn Ineligible V/O Percentage Completed
HW 21 - 17 3 - 1 80.95%
MW 41 - 38 3 - - 92.68%
LW 26 - 17 - - 9 65.38%
JN 7 - 5 1 - 1 71.43%
Totals 95 - 77 7 - 11 81.05%
Results - Bumbaldry (21-03-2015)
No. Rider Horse Place Time Leg Speeds Total
Km/Hr
H/R bpm
Heavyweight
190 Scott Davenport Alhambra Pierrot 1 (BC) 5:09:00 14.9, 16.5 15.53 35, 36, 46 (Avg:41)
171 Charles Gauci Charlieville Jack 2 5:47:00 18.0, 10.2 13.83 36, 53, 57 (Avg:55)
243 Evan Drain-Shepheard Prince Ibn Alii 3 6:04:00 13.5, 12.7 13.19 34, 46, 52 (Avg:49)
150 Cris Magnabosco Magna Contessa 4 6:09:00 14.7, 11.0 13.01 48, 41, 46 (Avg:43)
170 Andrew Jonkers Girilambone Comet 5 6:43:00 13.4, 10.1 11.91 30, 41, 50 (Avg:45)
169 Sarah Kelly Littlebanks Storm 6 6:48:00 12.9, 10.3 11.76 30, 44, 59 (Avg:51)
204 Jason Duff Karabil Niko 7 6:59:00 12.0, 10.6 11.46 41, 46, 47 (Avg:46)
219 Dean Hodkinson Cairo's Promise 8 7:00:00 11.6, 11.1 11.43 41, 48, 51 (Avg:49)
174 Marty Gregson Burren-dah Gladiator 9 7:25:00 10.7, 10.7 10.79 36, 45, 59 (Avg:52)
158 Jack Johnson Sharahd Narang 10 7:26:00 11.1, 10.2 10.76 36, 40, 52 (Avg:46)
160 Stuart Lymbery Aloha Typic 11 7:40:00 11.0, 9.6 10.43 28, 43, 48 (Avg:45)
246 Allan Caslick Scooter 12 7:44:00 10.9, 9.5 10.34 33, 40, 48 (Avg:44)
173 Peter Norman Mountain Ash Tabasco 13 7:46:00 11.7, 8.7 10.30 36, 45, 52 (Avg:48)
193 Heidi Wade Yinbilliko Shaka Zulu 14 7:52:00 10.6, 9.5 10.17 34, 36, 54 (Avg:45)
231 Brodie Freeman Cedar Ridge Monarch 15 8:02:00 9.9, 9.8 9.96 39, 43, 54 (Avg:48)
176 Alex Enticknap Applejack 16 8:22:00 9.9, 8.9 9.56 40, 48, 50 (Avg:49)
239 Mark Lindsay Kintamani Silver Marksman 17 8:24:00 10.5, 8.3 9.52 34, 46, 45 (Avg:45)
153 Andrew Bailey Bullio Solute Metabolics moderate L1 0:00:00 47.9 - 32, 44 (Avg:44)
191 Belinda Hopley Girilambone Sorcerer Withdrawn L1 0:00:00 - - 34, 43 (Avg:43)
165 John Robertson Karabil Asis Withdrawn L1 0:00:00 - - 32, 44 (Avg:44)
220 Annette Truman Saradova Withdrawn P/R 0:00:00 - - 34
Middleweight
215 Ian Curtis Blake's Heaven Summer Wind 1 4:44:00 18.0, 15.4 16.90 34, 41, 46 (Avg:43)
224 Talea Hasko-Stewart Blake's Heaven Bombora 1 (BC) 4:44:00 18.0, 15.4 16.90 35, 44, 40 (Avg:42)
196 Jeff Adams Jazzpers Brush 3 4:57:00 16.5, 15.6 16.16 28, 40, 55 (Avg:47)
177 Alamdar Dastani E.L. 4 5:09:00 14.1, 18.1 15.53 40, 41, 46 (Avg:43)
209 Gertraud Norton Scarlet Oaks Amica 4 5:09:00 16.9, 13.8 15.53 37, 53, 44 (Avg:48)
244 Jenny Shepheard Currowan Waratah 6 6:04:00 13.5, 12.7 13.19 36, 44, 45 (Avg:44)
216 Anita Ashby Lentara Park Heather 7 6:12:00 14.5, 11.0 12.90 42, 44, 40 (Avg:42)
213 Jason Rathbone Blake's Heaven Carousel 7 6:12:00 14.5, 11.0 12.90 34, 41, 45 (Avg:43)
151 Noni Seagrim Coolinda Park Frezja 9 6:25:00 13.7, 10.9 12.47 34, 44, 56 (Avg:50)
233 Ann English Cinbel-A-Chanele 10 6:42:00 13.7, 9.9 11.94 39, 48, 55 (Avg:51)
234 Wendy Riha Castlebar Belair 10 6:42:00 11.6, 12.4 11.94 38, 44, 53 (Avg:48)
236 Linda Tanian Castlebar Cadabra 10 6:42:00 11.6, 12.4 11.94 28, 42, 54 (Avg:48)
166 Colleen Clancy Kadimah Park Hamelech 13 6:43:00 12.5, 11.0 11.91 35, 37, 54 (Avg:45)
183 Jenny Berg Oso Ellazandra 14 6:44:00 11.9, 11.7 11.88 28, 41, 48 (Avg:44)
185 Amanda Kettlewell Oso Lorikeet 14 6:44:00 11.8, 11.9 11.88 33, 45, 57 (Avg:51)
154 Annette Bailey Harmere Katif 16 6:46:00 12.2, 11.2 11.82 37, 48, 46 (Avg:47)
167 Stacey Booth-Mollema Littlebanks I Candy 17 6:48:00 12.9, 10.3 11.76 32, 39, 46 (Avg:42)
156 John Symons Forest Dale Belle De Jour 17 6:48:00 12.9, 10.3 11.76 37, 36, 47 (Avg:41)
202 Sonia Bonham Box Hill Bullzeye 19 6:49:00 12.1, 11.2 11.74 32, 40, 59 (Avg:49)
162 Ben Hudson Littlebanks Integrity 19 6:49:00 12.1, 11.2 11.74 33, 41, 52 (Avg:46)
194 Carol Major Saradon 19 6:49:00 12.2, 11.0 11.74 37, 46, 54 (Avg:50)
163 Daphne Phillips Bad Boy Bubby 22 6:57:00 12.2, 10.6 11.51 34, 36, 49 (Avg:42)
179 Daniel Noble M.A. Hasaab 23 7:00:00 11.8, 10.9 11.43 38, 50, 57 (Avg:53)
188 Kimberley Temmerman Oso Dresdene Doll 24 7:13:00 11.3, 10.7 11.09 29, 46, 42 (Avg:44)
157 Kylie Jonkers Girilambone Aurora 25 7:18:00 11.9, 9.6 10.96 38, 40, 53 (Avg:46)
214 Mary Ptycia Halimas Desert Wind 25 7:18:00 11.8, 9.8 10.96 39, 48, 52 (Avg:50)
238 Virginia Blain Suncrest Naomi 27 7:22:00 11.2, 10.3 10.86 37, 49, 50 (Avg:49)
211 Jeremy Banwell Blake's Heaven Caruso 28 7:38:00 11.0, 9.6 10.48 25, 46, 47 (Avg:46)
159 Anne Lymbery Yerorlonga Spirit 29 7:40:00 11.0, 9.6 10.43 39, 44, 50 (Avg:47)
245 Jennifer Caslick A'Landell Soul 30 7:44:00 10.9, 9.5 10.34 29, 40, 36 (Avg:38)
164 Bruce Carter Elijah 31 7:47:00 11.7, 8.6 10.28 30, 37, 56 (Avg:46)
181 Ian Bassingthwaighte Future Dream Dodger 32 7:50:00 10.5, 9.7 10.21 35, 44, 51 (Avg:47)
155 Debra Sheather Quartz Hill Farm The Skywalker 33 7:54:00 10.1, 10.1 10.13 36, 38, 60 (Avg:49)
207 Victoria Bonham Bridle Track Bogart 34 7:55:00 11.1, 8.8 10.11 36, 47, 54 (Avg:50)
208 Chris Noonan Bridle Track Tiara 34 7:55:00 11.1, 8.8 10.11 35, 41, 38 (Avg:39)
230 Blake Freeman Cedar Ridge Bonanza 36 8:03:00 9.9, 9.8 9.94 36, 44, 56 (Avg:50)
249 Alan Lindsay Kintamani Silver Motif 37 8:24:00 11.3, 7.6 9.52 34, 44, 57 (Avg:50)
241 Camillele Bourdonnel Springridge Braxton 38 8:55:00 9.9, 7.7 8.97 40, 43, 54 (Avg:48)
180 Rebecca Lees Argon Withdrawn L2 0:00:00 - - 43, 46, 48 (Avg:47)
240 Kevin Guihot Windradyne Ferrero Withdrawn L1 0:00:00 - - 35, 38 (Avg:38)
237 Ellen Vine Castlebar Guardian Withdrawn L1 0:00:00 - - 36, 40 (Avg:40)
Lightweight
195 Irene Adams Shane D Survivor 1 4:57:00 16.5, 15.6 16.16 38, 44, 56 (Avg:50)
229 Roz Edmunds Everon Park Apollo 2 (BC) 5:09:00 18.0, 12.8 15.53 31, 42, 45 (Avg:43)
212 Cathy Banwell Wantley Kaliph 3 6:12:00 14.5, 11.0 12.90 31, 42, 51 (Avg:46)
227 Adeline Gibson Blake's Heaven Venus 3 6:12:00 14.5, 11.0 12.90 40, 47, 49 (Avg:48)
205 Marion Grove Wickwood Domanic 5 6:42:00 13.7, 9.9 11.94 33, 36, 42 (Avg:39)
197 Dianne Luker Kintamani Silver Diva 6 6:49:00 12.2, 11.0 11.74 34, 40, 45 (Avg:42)
198 Sue Todd Shakari Bear 6 6:49:00 12.2, 11.0 11.74 40, 44, 54 (Avg:49)
210 Samantha Clark Oso Zoltan 8 7:13:00 11.2, 10.9 11.09 34, 46, 59 (Avg:52)
184 Sorsha Stuart-Rokvic Oso Gay Capriole 8 7:13:00 11.3, 10.7 11.09 33, 45, 48 (Avg:46)
168 Linda Jonkers Girilambone Venus 10 7:18:00 11.9, 9.6 10.96 46, 42, 50 (Avg:46)
206 Indigo Noonan Duray Djuan 11 7:25:00 11.1, 10.3 10.79 34, 41, 46 (Avg:43)
172 Shelly Ison Lulu 12 7:46:00 11.7, 8.7 10.30 42, 41, 40 (Avg:40)
242 Leslee Burrell Larntainey Crystal Girl 13 7:47:00 11.7, 8.6 10.28 32, 42, 50 (Avg:46)
178 Maddy Collins M.A. Mashkell 14 7:50:00 10.5, 9.7 10.21 33, 42, 49 (Avg:45)
192 Vetea Facchini Pevensey Prosecco 15 7:52:00 10.6, 9.5 10.17 30, 40, 51 (Avg:45)
248 Jessica Long Kintamani Rose Maree 16 8:24:00 11.3, 7.6 9.52 33, 42, 54 (Avg:48)
217 Catherine Connors Incognito 17 8:36:00 9.5, 8.8 9.30 32, 43, 50 (Avg:46)
152 Felicia Ingram Le Masterprint Heart Rate L2 0:00:00 10.1, 10.1 - 33, 45, 62 (Avg:53)
186 Allix Jones Al Marah Gypsy Red Metabolics moderate L2 0:00:00 11.9, 1.3 - 32, 46 (Avg:46)
189 Sarah McLaughlin Marneross Zameel Lame L2 0:00:00 11.2, 10.9 - 33, 44, 50 (Avg:47)
218 Kristie Wright Cooroora Allyjah Lame L2 0:00:00 11.6, 11.1 - 34, 44, 58 (Avg:51)
225 Fia Hasko-Stewart Blake's Heaven Summer Reign Lame L1 0:00:00 18.0 - 42, 41 (Avg:41)
175 Shannon Hill Burren-Dah Lady Isabeau Lame L1 0:00:00 10.7 - 44, 53 (Avg:53)
228 Maxine McArthur Blake's Heaven Dubonnet Lame L1 0:00:00 13.5 - 37, 39 (Avg:39)
222 Kim Noble Aitchisonview Maverick Lame L1 0:00:00 11.8 - 38, 43 (Avg:43)
201 Louise Stevens Ellen Grove Shantelle Lame L1 0:00:00 14.1 - 32, 48 (Avg:48)
Junior
226 Celia Hodgson Brookleigh Shiralee 1 (BC) 6:12:00 13.5, 12.0 12.90 32, 41, 44 (Avg:42)
182 Stacey Clarke Oso Lee 2 6:44:00 11.8, 11.9 11.88 35, 44, 53 (Avg:48)
203 Sam Duff Box Hill Pegasus 3 6:49:00 12.1, 11.2 11.74 34, 32, 42 (Avg:37)
221 Thomas Reay Roswick Ameera 4 7:00:00 11.8, 10.9 11.43 34, 42, 49 (Avg:45)
199 Harrison Berg Gleniph Maskrade 5 8:00:00 11.0, 8.7 10.00 32, 42, 45 (Avg:43)
187 Tahnaya Mercieca AM Reigning Bianca Withdrawn L2 0:00:00 - - 38, 40, 40 (Avg:40)
223 Alison Noble Roswick Dilhurst Lame L1 0:00:00 11.8 - 32, 44 (Avg:44)